Time;durP1;ratioP1;P1;durP2;ratioP2;P2;SDS_P1;SDS_P2;PMS_P1;PMS_P2;Temp;Humidity;BMP_temperature;BMP_pressure;BME280_temperature;BME280_humidity;BME280_pressure;Samples;Min_cycle;Max_cycle;Signal;HPM_P1;HPM_P2
2023/10/24 00:00:35;;;;;;;0.20;0.20;;;;;;;10.43;100.00;100108.81;5114759;28;20038;-56
2023/10/24 00:03:00;;;;;;;0.20;0.20;;;;;;;10.44;100.00;100097.66;5115447;28;20110;-56
2023/10/24 00:05:27;;;;;;;0.20;0.20;;;;;;;10.45;100.00;100095.97;5115066;28;20024;-56
2023/10/24 00:07:53;;;;;;;0.20;0.20;;;;;;;10.44;100.00;100095.06;5114716;28;20023;-56
2023/10/24 00:10:18;;;;;;;0.20;0.20;;;;;;;10.45;100.00;100101.97;5115052;28;20027;-56
2023/10/24 00:12:43;;;;;;;0.20;0.20;;;;;;;10.45;100.00;100091.66;5116015;28;20026;-56
2023/10/24 00:15:09;;;;;;;0.17;0.17;;;;;;;10.47;100.00;100094.25;5114730;28;20027;-56
2023/10/24 00:17:34;;;;;;;0.20;0.20;;;;;;;10.47;100.00;100095.16;5115098;28;20387;-56
2023/10/24 00:19:59;;;;;;;0.20;0.20;;;;;;;10.48;100.00;100094.31;5115273;28;20115;-56
2023/10/24 00:22:25;;;;;;;0.20;0.20;;;;;;;10.49;100.00;100085.72;5114118;28;20497;-56
2023/10/24 00:24:50;;;;;;;0.20;0.20;;;;;;;10.52;100.00;100090.06;5114348;28;20114;-56
2023/10/24 00:27:16;;;;;;;0.25;0.25;;;;;;;10.51;100.00;100089.19;5114873;28;20383;-56
2023/10/24 00:29:41;;;;;;;0.20;0.20;;;;;;;10.52;100.00;100088.38;5114355;28;20020;-56
2023/10/24 00:32:06;;;;;;;0.20;0.20;;;;;;;10.52;100.00;100079.75;5115274;28;20046;-56
2023/10/24 00:34:32;;;;;;;0.20;0.20;;;;;;;10.54;100.00;100083.22;5114514;28;20104;-55
2023/10/24 00:36:57;;;;;;;0.20;0.20;;;;;;;10.56;100.00;100090.97;5114521;28;20046;-56
2023/10/24 00:39:22;;;;;;;0.20;0.20;;;;;;;10.56;100.00;100081.56;5114541;28;20027;-56
2023/10/24 00:41:48;;;;;;;0.20;0.20;;;;;;;10.57;100.00;100083.28;5114331;28;20146;-56
2023/10/24 00:44:13;;;;;;;0.20;0.20;;;;;;;10.57;100.00;100082.41;5114168;28;20064;-56
2023/10/24 00:46:39;;;;;;;0.20;0.20;;;;;;;10.57;100.00;100079.84;5114999;28;20094;-56
2023/10/24 00:49:06;;;;;;;0.30;0.30;;;;;;;10.59;100.00;100085.88;5114659;28;20019;-56
2023/10/24 00:51:31;;;;;;;0.20;0.20;;;;;;;10.58;100.00;100091.88;5113831;28;20030;-56
2023/10/24 00:53:58;;;;;;;0.20;0.20;;;;;;;10.57;100.00;100108.19;5114741;28;20016;-56
2023/10/24 00:56:25;;;;;;;0.20;0.20;;;;;;;10.58;100.00;100104.78;5114201;28;20027;-56
2023/10/24 00:58:51;;;;;;;0.20;0.20;;;;;;;10.57;100.00;100100.44;5114202;28;20030;-56
2023/10/24 01:01:17;;;;;;;0.20;0.20;;;;;;;10.56;100.00;100096.13;5114117;28;20031;-56
2023/10/24 01:03:46;;;;;;;0.30;0.30;;;;;;;10.54;100.00;100096.13;5113706;28;20070;-56
2023/10/24 01:06:11;;;;;;;0.20;0.20;;;;;;;10.53;100.00;100096.94;5114066;28;20080;-56
2023/10/24 01:08:37;;;;;;;0.20;0.20;;;;;;;10.54;100.00;100096.13;5114397;28;20024;-56
2023/10/24 01:11:03;;;;;;;0.20;0.20;;;;;;;10.53;100.00;100102.09;5113495;28;20372;-56
2023/10/24 01:13:28;;;;;;;0.20;0.20;;;;;;;10.51;100.00;100096.94;5114231;28;20119;-56
2023/10/24 01:15:54;;;;;;;0.20;0.20;;;;;;;10.50;100.00;100087.47;5114477;28;20059;-56
2023/10/24 01:18:19;;;;;;;0.20;0.20;;;;;;;10.50;100.00;100087.47;5113299;28;20024;-55
2023/10/24 01:20:44;;;;;;;0.20;0.20;;;;;;;10.49;100.00;100083.13;5114073;28;20020;-56
2023/10/24 01:23:10;;;;;;;0.20;0.20;;;;;;;10.48;100.00;100077.97;5113793;28;20027;-56
2023/10/24 01:25:40;;;;;;;0.20;0.20;;;;;;;10.46;100.00;100090.81;5113480;28;20020;-56
2023/10/24 01:28:06;;;;;;;0.20;0.20;;;;;;;10.47;100.00;100086.53;5113875;28;20416;-56
2023/10/24 01:30:33;;;;;;;0.20;0.20;;;;;;;10.45;100.00;100089.09;5113730;28;20024;-56
2023/10/24 01:32:59;;;;;;;0.20;0.20;;;;;;;10.44;100.00;100082.19;5113470;28;20019;-56
2023/10/24 01:35:24;;;;;;;0.17;0.17;;;;;;;10.43;100.00;100085.63;5113680;28;20035;-56
2023/10/24 01:37:49;;;;;;;0.20;0.20;;;;;;;10.43;100.00;100089.91;5112854;28;20028;-57
2023/10/24 01:40:15;;;;;;;0.20;0.20;;;;;;;10.42;100.00;100096.78;5113171;28;20364;-57
2023/10/24 01:42:40;;;;;;;0.30;0.30;;;;;;;10.42;100.00;100109.66;5113518;28;20551;-56
2023/10/24 01:45:06;;;;;;;0.20;0.20;;;;;;;10.42;100.00;100101.94;5113664;28;20024;-57
2023/10/24 01:47:31;;;;;;;0.20;0.20;;;;;;;10.44;100.00;100096.78;5112953;28;20020;-57
2023/10/24 01:49:57;;;;;;;0.20;0.20;;;;;;;10.43;100.00;100089.91;5113636;28;20033;-56
2023/10/24 01:52:22;;;;;;;0.20;0.20;;;;;;;10.42;100.00;100086.47;5113092;28;20026;-57
2023/10/24 01:54:47;;;;;;;0.20;0.20;;;;;;;10.42;100.00;100085.59;5113291;28;20036;-56
2023/10/24 01:57:14;;;;;;;0.30;0.30;;;;;;;10.40;100.00;100080.41;5113187;28;20106;-56
2023/10/24 01:59:39;;;;;;;0.20;0.20;;;;;;;10.40;100.00;100072.69;5113264;28;20081;-56
2023/10/24 02:02:04;;;;;;;0.20;0.20;;;;;;;10.38;100.00;100072.66;5113023;28;20028;-57
2023/10/24 02:04:30;;;;;;;0.20;0.20;;;;;;;10.40;100.00;100085.56;5113088;28;20028;-56
2023/10/24 02:06:55;;;;;;;0.20;0.20;;;;;;;10.39;100.00;100086.38;5112667;28;20019;-57
2023/10/24 02:09:20;;;;;;;0.20;0.20;;;;;;;10.38;100.00;100080.38;5113292;28;20020;-56
2023/10/24 02:11:45;;;;;;;0.20;0.20;;;;;;;10.37;100.00;100078.66;5113501;28;20072;-57
2023/10/24 02:14:11;;;;;;;0.20;0.20;;;;;;;10.37;100.00;100078.66;5112420;28;20505;-56
2023/10/24 02:16:36;;;;;;;0.20;0.20;;;;;;;10.37;100.00;100077.78;5113414;28;20024;-56
2023/10/24 02:19:01;;;;;;;0.20;0.20;;;;;;;10.37;100.00;100085.50;5113255;28;20442;-56
2023/10/24 02:21:27;;;;;;;0.20;0.20;;;;;;;10.35;100.00;100077.78;5112239;28;20016;-57
2023/10/24 02:23:52;;;;;;;0.20;0.20;;;;;;;10.35;100.00;100072.63;5113486;28;20032;-57
2023/10/24 02:26:17;;;;;;;0.20;0.20;;;;;;;10.35;100.00;100077.78;5113221;28;20542;-57
2023/10/24 02:28:43;;;;;;;0.20;0.20;;;;;;;10.35;100.00;100076.84;5112615;28;20036;-57
2023/10/24 02:31:08;;;;;;;0.20;0.20;;;;;;;10.33;100.00;100081.97;5113253;28;20364;-56
2023/10/24 02:33:33;;;;;;;0.10;0.10;;;;;;;10.31;100.00;100083.66;5112999;28;20032;-56
2023/10/24 02:36:13;;;;;;;0.20;0.20;;;;;;;10.30;100.00;100084.50;5112491;28;20023;-57
2023/10/24 02:38:39;;;;;;;0.20;0.20;;;;;;;10.26;100.00;100095.56;5113342;28;20106;-56
2023/10/24 02:41:04;;;;;;;0.30;0.30;;;;;;;10.26;100.00;100092.13;5112906;28;20083;-56
2023/10/24 02:43:30;;;;;;;0.30;0.30;;;;;;;10.24;100.00;100093.81;5112074;28;20019;-56
2023/10/24 02:45:57;;;;;;;0.20;0.20;;;;;;;10.23;100.00;100097.25;5113036;28;20486;-56
2023/10/24 02:48:23;;;;;;;0.20;0.20;;;;;;;10.19;100.00;100094.59;5114185;28;20058;-56
2023/10/24 02:50:55;;;;;;;0.20;0.20;;;;;;;10.19;100.00;100104.03;5116450;28;20020;-56
2023/10/24 02:53:21;;;;;;;0.20;0.20;;;;;;;10.16;100.00;100102.28;5116972;28;20059;-57
2023/10/24 02:55:48;;;;;;;0.20;0.20;;;;;;;10.16;100.00;100107.41;5116834;28;20051;-57
2023/10/24 02:58:13;;;;;;;0.20;0.20;;;;;;;10.15;100.00;100115.97;5116229;28;20039;-57
2023/10/24 03:00:39;;;;;;;0.20;0.20;;;;;;;10.13;100.00;100107.34;5116838;28;20016;-57
2023/10/24 03:03:05;;;;;;;0.20;0.20;;;;;;;10.13;100.00;100111.63;5116110;28;20059;-57
2023/10/24 03:05:30;;;;;;;0.20;0.20;;;;;;;10.10;100.00;100115.03;5116682;28;20030;-56
2023/10/24 03:07:55;;;;;;;0.20;0.20;;;;;;;10.08;100.00;100116.69;5116854;28;20102;-56
2023/10/24 03:10:21;;;;;;;0.20;0.20;;;;;;;10.07;100.00;100116.66;5115727;28;20429;-57
2023/10/24 03:12:47;;;;;;;0.20;0.20;;;;;;;10.07;100.00;100119.22;5116677;28;20028;-56
2023/10/24 03:15:12;;;;;;;0.20;0.20;;;;;;;10.06;100.00;100113.22;5116524;28;20028;-57
2023/10/24 03:17:37;;;;;;;0.28;0.28;;;;;;;10.07;100.00;100114.97;5115784;28;20127;-57
2023/10/24 03:20:05;;;;;;;0.20;0.20;;;;;;;10.05;100.00;100114.06;5116679;28;20039;-56
2023/10/24 03:22:30;;;;;;;0.30;0.30;;;;;;;10.04;100.00;100112.31;5116350;28;20120;-56
2023/10/24 03:24:56;;;;;;;0.20;0.20;;;;;;;10.05;100.00;100116.63;5115672;28;20170;-57
2023/10/24 03:27:21;;;;;;;0.20;0.20;;;;;;;10.04;100.00;100114.88;5116067;28;20031;-56
2023/10/24 03:29:47;;;;;;;0.20;0.20;;;;;;;10.04;100.00;100117.47;5116317;28;20112;-56
2023/10/24 03:32:13;;;;;;;0.20;0.20;;;;;;;10.03;100.00;100115.72;5115427;28;20153;-56
2023/10/24 03:34:38;;;;;;;0.20;0.20;;;;;;;10.02;100.00;100119.16;5116418;28;20061;-56
2023/10/24 03:37:04;;;;;;;0.20;0.20;;;;;;;10.02;100.00;100114.00;5106813;28;20077;-56
2023/10/24 03:39:29;;;;;;;0.20;0.20;;;;;;;10.01;100.00;100113.13;5094942;28;20028;-57
2023/10/24 03:41:55;;;;;;;0.20;0.20;;;;;;;10.01;100.00;100115.69;5095548;28;20052;-56
2023/10/24 03:44:22;;;;;;;0.20;0.20;;;;;;;10.01;100.00;100115.69;5095066;28;20032;-56
2023/10/24 03:46:48;;;;;;;0.20;0.20;;;;;;;10.00;100.00;100110.53;5095052;28;20020;-56
2023/10/24 03:49:13;;;;;;;0.20;0.20;;;;;;;9.99;100.00;100113.94;5095482;28;20032;-56
2023/10/24 03:51:38;;;;;;;0.30;0.30;;;;;;;9.99;100.00;100117.41;5095434;28;20024;-56
2023/10/24 03:54:04;;;;;;;0.22;0.22;;;;;;;9.98;100.00;100107.94;5095259;28;20081;-56
2023/10/24 03:56:29;;;;;;;0.20;0.20;;;;;;;9.98;100.00;100109.63;5095360;28;20032;-56
2023/10/24 03:58:55;;;;;;;0.20;0.20;;;;;;;9.99;100.00;100116.50;5094837;28;20032;-56
2023/10/24 04:01:20;;;;;;;0.20;0.20;;;;;;;9.99;100.00;100125.13;5093718;28;20069;-56
2023/10/24 04:03:45;;;;;;;0.20;0.20;;;;;;;10.00;100.00;100115.66;5095430;28;20032;-56
2023/10/24 04:06:11;;;;;;;0.20;0.20;;;;;;;9.98;100.00;100136.25;5094912;28;20047;-56
2023/10/24 04:08:37;;;;;;;0.20;0.20;;;;;;;9.97;100.00;100129.34;5094920;28;20028;-56
2023/10/24 04:11:03;;;;;;;0.20;0.20;;;;;;;9.97;100.00;100120.78;5095234;28;20032;-56
2023/10/24 04:13:28;;;;;;;0.20;0.20;;;;;;;9.98;100.00;100125.06;5094093;28;20039;-56
2023/10/24 04:16:00;;;;;;;0.20;0.20;;;;;;;9.95;100.00;100117.28;5095193;28;20024;-56
2023/10/24 04:18:27;;;;;;;0.20;0.20;;;;;;;9.94;100.00;100105.25;5094879;28;20032;-56
2023/10/24 04:20:52;;;;;;;0.20;0.20;;;;;;;9.94;100.00;100121.56;5094477;28;20016;-56
2023/10/24 04:23:17;;;;;;;0.20;0.20;;;;;;;9.95;100.00;100110.41;5094755;28;20282;-56
2023/10/24 04:25:42;;;;;;;0.20;0.20;;;;;;;9.94;100.00;100100.09;5094869;28;20501;-56
2023/10/24 04:28:08;;;;;;;0.20;0.20;;;;;;;9.91;100.00;100093.19;5094084;28;20043;-56
2023/10/24 04:30:33;;;;;;;0.22;0.22;;;;;;;9.90;100.00;100099.16;5094422;28;20024;-56
2023/10/24 04:32:58;;;;;;;0.20;0.20;;;;;;;9.89;100.00;100092.31;5094732;28;20024;-56
2023/10/24 04:35:24;;;;;;;0.30;0.30;;;;;;;9.88;100.00;100091.41;5093947;28;20028;-56
2023/10/24 04:37:50;;;;;;;0.20;0.20;;;;;;;9.88;100.00;100081.13;5094742;28;20020;-56
2023/10/24 04:40:15;;;;;;;0.30;0.30;;;;;;;9.86;100.00;100072.53;5094064;28;20027;-56
2023/10/24 04:42:40;;;;;;;0.20;0.20;;;;;;;9.88;100.00;100080.25;5093842;28;20051;-56
2023/10/24 04:45:07;;;;;;;0.20;0.20;;;;;;;9.86;100.00;100087.06;5094299;28;20441;-56
2023/10/24 04:47:32;;;;;;;0.20;0.20;;;;;;;9.85;100.00;100081.06;5094125;28;20101;-56
2023/10/24 04:49:57;;;;;;;0.30;0.30;;;;;;;9.85;100.00;100096.50;5094107;28;20411;-56
2023/10/24 04:52:22;;;;;;;0.20;0.20;;;;;;;9.84;100.00;100087.03;5094161;28;20039;-56
2023/10/24 04:54:48;;;;;;;0.22;0.22;;;;;;;9.84;100.00;100087.03;5094100;28;20426;-56
2023/10/24 04:57:13;;;;;;;0.20;0.20;;;;;;;9.83;100.00;100082.72;5093415;28;20036;-56
2023/10/24 04:59:38;;;;;;;0.20;0.20;;;;;;;9.85;100.00;100088.78;5094115;28;20475;-56
2023/10/24 05:02:04;;;;;;;0.20;0.20;;;;;;;9.85;100.00;100099.09;5094183;28;20016;-56
2023/10/24 05:04:29;;;;;;;0.20;0.20;;;;;;;9.85;100.00;100100.78;5093135;28;20142;-55
2023/10/24 05:06:55;;;;;;;0.20;0.20;;;;;;;9.84;100.00;100099.91;5094163;28;20032;-56
2023/10/24 05:09:21;;;;;;;0.22;0.22;;;;;;;9.83;100.00;100098.19;5093437;28;20395;-56
2023/10/24 05:11:47;;;;;;;0.20;0.20;;;;;;;9.82;100.00;100100.72;5093170;28;20063;-56
2023/10/24 05:14:13;;;;;;;0.20;0.20;;;;;;;9.83;100.00;100107.63;5093538;28;20024;-56
2023/10/24 05:16:39;;;;;;;0.30;0.30;;;;;;;9.81;100.00;100102.44;5093859;28;20384;-56
2023/10/24 05:19:05;;;;;;;0.20;0.20;;;;;;;9.81;100.00;100101.56;5093477;28;20020;-56
2023/10/24 05:21:32;;;;;;;0.30;0.30;;;;;;;9.82;100.00;100099.00;5093457;28;20545;-56
2023/10/24 05:23:58;;;;;;;0.20;0.20;;;;;;;9.81;100.00;100107.59;5093049;28;20024;-56
2023/10/24 05:26:24;;;;;;;0.20;0.20;;;;;;;9.80;100.00;100104.97;5093404;28;20488;-56
2023/10/24 05:28:49;;;;;;;0.30;0.30;;;;;;;9.79;100.00;100100.66;5093646;28;20027;-55
2023/10/24 05:31:14;;;;;;;0.20;0.20;;;;;;;9.79;100.00;100101.53;5092515;28;20082;-56
2023/10/24 05:33:39;;;;;;;0.30;0.30;;;;;;;9.80;100.00;100092.09;5093711;28;20035;-56
2023/10/24 05:36:05;;;;;;;0.22;0.22;;;;;;;9.81;100.00;100093.84;5093681;28;20055;-56
2023/10/24 05:38:32;;;;;;;0.20;0.20;;;;;;;9.81;100.00;100074.13;5092726;28;20023;-56
2023/10/24 05:40:58;;;;;;;0.20;0.20;;;;;;;9.81;100.00;100069.00;5093465;28;20043;-56
2023/10/24 05:43:23;;;;;;;0.20;0.20;;;;;;;9.80;100.00;100072.38;5092898;28;20040;-56
2023/10/24 05:45:48;;;;;;;0.20;0.20;;;;;;;9.78;100.00;100068.91;5093135;28;20379;-56
2023/10/24 05:48:14;;;;;;;0.30;0.30;;;;;;;9.77;100.00;100068.88;5093262;28;20055;-56
2023/10/24 05:50:39;;;;;;;0.20;0.20;;;;;;;9.74;100.00;100074.84;5093246;28;20494;-56
2023/10/24 05:53:04;;;;;;;0.30;0.30;;;;;;;9.78;100.00;100084.34;5092881;28;20531;-56
2023/10/24 05:55:29;;;;;;;0.25;0.25;;;;;;;9.78;100.00;100086.91;5092990;28;20024;-56
2023/10/24 05:57:55;;;;;;;0.20;0.20;;;;;;;9.78;100.00;100099.78;5092930;28;20515;-56
2023/10/24 06:00:20;;;;;;;0.30;0.30;;;;;;;9.77;100.00;100090.31;5092287;28;20025;-56
2023/10/24 06:02:45;;;;;;;0.20;0.20;;;;;;;9.73;100.00;100085.97;5093258;28;20531;-56
2023/10/24 06:05:11;;;;;;;0.30;0.30;;;;;;;9.65;100.00;100083.22;5092690;28;20024;-56
2023/10/24 06:07:36;;;;;;;0.20;0.20;;;;;;;9.62;100.00;100098.59;5092704;28;20035;-56
2023/10/24 06:10:03;;;;;;;0.22;0.22;;;;;;;9.60;100.00;100099.41;5093187;28;20023;-55
2023/10/24 06:12:29;;;;;;;0.20;0.20;;;;;;;9.59;100.00;100090.81;5092532;28;20494;-55
2023/10/24 06:14:54;;;;;;;0.30;0.30;;;;;;;9.63;100.00;100102.03;5092655;28;20028;-56
2023/10/24 06:17:20;;;;;;;0.20;0.20;;;;;;;9.64;100.00;100096.91;5092897;28;20458;-56
2023/10/24 06:19:48;;;;;;;0.20;0.20;;;;;;;9.66;100.00;100095.25;5092822;28;20024;-55
2023/10/24 06:22:14;;;;;;;0.20;0.20;;;;;;;9.68;100.00;100092.72;5092082;28;20479;-56
2023/10/24 06:24:39;;;;;;;0.20;0.20;;;;;;;9.69;100.00;100079.00;5096614;28;20040;-56
2023/10/24 06:27:05;;;;;;;0.20;0.20;;;;;;;9.68;100.00;100087.56;5096283;28;20471;-55
2023/10/24 06:29:30;;;;;;;0.20;0.20;;;;;;;9.67;100.00;100083.25;5096713;28;20089;-56
2023/10/24 06:31:56;;;;;;;0.20;0.20;;;;;;;9.65;100.00;100087.50;5097247;28;20479;-55
2023/10/24 06:34:22;;;;;;;0.20;0.20;;;;;;;9.64;100.00;100083.19;5096084;28;20032;-55
2023/10/24 06:36:47;;;;;;;0.20;0.20;;;;;;;9.67;100.00;100094.44;5096930;28;20101;-52
2023/10/24 06:39:12;;;;;;;0.20;0.20;;;;;;;9.68;100.00;100103.88;5096636;28;20024;-55
2023/10/24 06:41:38;;;;;;;0.20;0.20;;;;;;;9.71;100.00;100113.38;5095896;28;20488;-55
2023/10/24 06:44:03;;;;;;;0.20;0.20;;;;;;;9.69;100.00;100121.03;5096957;28;20032;-55
2023/10/24 06:46:28;;;;;;;0.20;0.20;;;;;;;9.70;100.00;100122.78;5096397;28;20028;-55
2023/10/24 06:48:54;;;;;;;0.30;0.30;;;;;;;9.73;100.00;100114.25;5096333;28;20116;-55
2023/10/24 06:51:19;;;;;;;0.28;0.28;;;;;;;9.76;100.00;100111.78;5096353;28;20024;-56
2023/10/24 06:53:44;;;;;;;0.20;0.20;;;;;;;9.77;100.00;100118.63;5096444;28;20031;-56
2023/10/24 06:56:09;;;;;;;0.20;0.20;;;;;;;9.77;100.00;100116.06;5095898;28;20047;-56
2023/10/24 06:58:36;;;;;;;0.20;0.20;;;;;;;9.78;100.00;100104.94;5096420;28;20487;-56
2023/10/24 07:01:02;;;;;;;0.20;0.20;;;;;;;9.80;100.00;100111.00;5096296;28;20524;-55
2023/10/24 07:03:28;;;;;;;0.10;0.10;;;;;;;9.80;100.00;100105.84;5095542;28;20282;-54
2023/10/24 07:05:53;;;;;;;0.28;0.28;;;;;;;9.82;100.00;100109.31;5096537;28;20085;-54
2023/10/24 07:08:20;;;;;;;0.20;0.20;;;;;;;9.83;100.00;100113.63;5095879;28;20031;-55
2023/10/24 07:10:46;;;;;;;0.30;0.30;;;;;;;9.83;100.00;100103.31;5095823;28;20024;-55
2023/10/24 07:13:12;;;;;;;0.20;0.20;;;;;;;9.83;100.00;100098.19;5095932;28;20099;-56
2023/10/24 07:15:40;;;;;;;0.20;0.20;;;;;;;9.85;100.00;100087.91;5096203;28;20031;-55
2023/10/24 07:18:06;;;;;;;0.30;0.30;;;;;;;9.86;100.00;100103.41;5095727;28;20101;-55
2023/10/24 07:20:36;;;;;;;0.30;0.30;;;;;;;9.87;100.00;100110.25;5096071;28;20110;-52
2023/10/24 07:23:02;;;;;;;0.20;0.20;;;;;;;9.91;100.00;100100.91;5095834;28;20028;-55
2023/10/24 07:25:27;;;;;;;0.20;0.20;;;;;;;9.95;100.00;100092.41;5095143;28;20032;-56
2023/10/24 07:27:52;;;;;;;0.20;0.20;;;;;;;9.98;100.00;100101.88;5096218;28;20024;-56
2023/10/24 07:30:17;;;;;;;0.20;0.20;;;;;;;10.03;100.00;100097.69;5095630;28;20345;-55
2023/10/24 07:32:43;;;;;;;0.20;0.20;;;;;;;10.07;100.00;100106.34;5095550;28;20034;-56
2023/10/24 07:35:08;;;;;;;0.22;0.22;;;;;;;10.08;100.00;100108.09;5106516;28;20034;-55
2023/10/24 07:37:35;;;;;;;0.20;0.20;;;;;;;10.11;100.00;100111.63;5115148;28;20050;-54
2023/10/24 07:40:02;;;;;;;0.20;0.20;;;;;;;10.13;100.00;100109.91;5116144;28;20031;-55
2023/10/24 07:42:27;;;;;;;0.20;0.20;;;;;;;10.17;100.00;100109.16;5115428;28;20044;-55
2023/10/24 07:44:53;;;;;;;0.20;0.20;;;;;;;10.21;100.00;100100.66;5115353;28;20364;-55
2023/10/24 07:47:18;;;;;;;0.20;0.20;;;;;;;10.25;100.00;100108.44;5115859;28;20112;-57
2023/10/24 07:49:44;;;;;;;0.20;0.20;;;;;;;10.28;100.00;100106.78;5115692;28;20031;-54
2023/10/24 07:52:09;;;;;;;0.20;0.20;;;;;;;10.32;100.00;100107.72;5115479;28;20502;-56
2023/10/24 07:54:34;;;;;;;0.20;0.20;;;;;;;10.32;100.00;100095.69;5115706;28;20115;-55
2023/10/24 07:57:00;;;;;;;0.20;0.20;;;;;;;10.34;100.00;100093.13;5115812;28;20028;-55
2023/10/24 07:59:26;;;;;;;0.20;0.20;;;;;;;10.36;100.00;100084.63;5115211;28;20023;-55
2023/10/24 08:01:51;;;;;;;0.20;0.20;;;;;;;10.39;100.00;100083.81;5115841;28;20026;-55
2023/10/24 08:04:16;;;;;;;0.20;0.20;;;;;;;10.39;100.00;100088.97;5115098;28;20027;-56
2023/10/24 08:06:41;;;;;;;0.20;0.20;;;;;;;10.40;100.00;100088.13;5115141;28;20039;-55
2023/10/24 08:09:07;;;;;;;0.20;0.20;;;;;;;10.41;100.00;100082.16;5115487;28;20088;-55
2023/10/24 08:11:32;;;;;;;0.20;0.20;;;;;;;10.49;100.00;100080.56;5114881;28;20031;-55
2023/10/24 08:13:57;;;;;;;0.28;0.28;;;;;;;10.56;100.00;100085.84;5114884;28;20034;-54
2023/10/24 08:16:23;;;;;;;0.20;0.20;;;;;;;10.72;100.00;100100.72;5115340;28;20041;-56
2023/10/24 08:18:48;;;;;;;0.20;0.20;;;;;;;10.82;100.00;100102.59;5115317;28;20028;-55
2023/10/24 08:21:14;;;;;;;0.20;0.20;;;;;;;10.93;100.00;100092.47;5114561;28;20027;-57
2023/10/24 08:23:39;;;;;;;0.20;0.20;;;;;;;11.00;100.00;100093.41;5115421;28;20026;-54
2023/10/24 08:26:04;;;;;;;0.20;0.20;;;;;;;11.13;100.00;100089.31;5115015;28;20372;-56
2023/10/24 08:28:31;;;;;;;0.20;0.20;;;;;;;11.17;100.00;100096.28;5114420;28;20023;-55
2023/10/24 08:30:57;;;;;;;0.20;0.20;;;;;;;11.30;100.00;100093.03;5115139;28;20020;-56
2023/10/24 08:33:22;;;;;;;0.20;0.20;;;;;;;11.34;100.00;100093.94;5114635;28;20046;-54
2023/10/24 08:35:47;;;;;;;0.20;0.20;;;;;;;11.35;100.00;100100.84;5114518;28;20023;-55
2023/10/24 08:38:13;;;;;;;0.20;0.20;;;;;;;11.34;100.00;100104.25;5114687;28;20490;-55
2023/10/24 08:40:40;;;;;;;0.20;0.20;;;;;;;11.34;100.00;100122.31;5114423;28;20119;-54
2023/10/24 08:43:05;;;;;;;0.20;0.20;;;;;;;11.31;100.00;100124.84;5114815;28;20028;-54
2023/10/24 08:45:31;;;;;;;0.20;0.20;;;;;;;11.33;100.00;100133.47;5113902;28;20421;-55
2023/10/24 08:47:57;;;;;;;0.20;0.20;;;;;;;11.35;100.00;100136.97;5114045;28;20027;-55
2023/10/24 08:50:23;;;;;;;0.20;0.20;;;;;;;11.38;100.00;100130.97;5114545;28;20019;-55
2023/10/24 08:52:48;;;;;;;0.20;0.20;;;;;;;11.45;100.00;100123.34;5114381;28;20028;-53
2023/10/24 08:55:14;;;;;;;0.20;0.20;;;;;;;11.42;100.00;100118.13;5113682;28;20031;-54
2023/10/24 08:57:41;;;;;;;0.20;0.20;;;;;;;11.36;100.00;100125.78;5114731;28;20399;-55
2023/10/24 09:00:12;;;;;;;0.20;0.20;;;;;;;11.35;100.00;100121.47;5114275;28;20383;-56
2023/10/24 09:02:39;;;;;;;0.20;0.20;;;;;;;11.27;100.00;100120.47;5114424;28;20077;-54
2023/10/24 09:05:05;;;;;;;0.20;0.20;;;;;;;11.23;100.00;100131.59;5114377;28;20111;-56
2023/10/24 09:07:30;;;;;;;0.20;0.20;;;;;;;11.21;100.00;100134.16;5113819;28;20278;-56
2023/10/24 09:09:56;;;;;;;0.20;0.20;;;;;;;11.21;100.00;100113.53;5114016;28;20023;-55
2023/10/24 09:12:21;;;;;;;0.20;0.20;;;;;;;11.23;100.00;100105.81;5114143;28;20098;-56
2023/10/24 09:14:48;;;;;;;0.20;0.20;;;;;;;11.26;100.00;100111.00;5114075;28;20382;-56
2023/10/24 09:17:17;;;;;;;0.20;0.20;;;;;;;11.25;100.00;100106.72;5113223;28;20383;-56
2023/10/24 09:19:43;;;;;;;0.20;0.20;;;;;;;11.26;100.00;100103.25;5114106;28;20451;-56
2023/10/24 09:22:09;;;;;;;0.20;0.20;;;;;;;11.29;100.00;100103.31;5113795;28;20527;-56
2023/10/24 09:24:35;;;;;;;0.20;0.20;;;;;;;11.31;100.00;100093.88;5113587;28;20148;-55
2023/10/24 09:27:01;;;;;;;0.20;0.20;;;;;;;11.34;100.00;100101.69;5114236;28;20106;-56
2023/10/24 09:29:27;;;;;;;0.20;0.20;;;;;;;11.44;100.00;100095.81;5113472;28;20369;-55
2023/10/24 09:31:53;;;;;;;0.20;0.20;;;;;;;11.46;100.00;100088.94;5113459;28;20370;-57
2023/10/24 09:34:19;;;;;;;0.20;0.20;;;;;;;11.52;100.00;100085.59;5113620;28;20031;-55
2023/10/24 09:36:45;;;;;;;0.20;0.20;;;;;;;11.69;100.00;100086.66;5113524;28;20032;-55
2023/10/24 09:39:11;;;;;;;0.20;0.20;;;;;;;11.89;100.00;100085.19;5113227;28;20046;-55
2023/10/24 09:41:41;;;;;;;0.20;0.20;;;;;;;11.99;100.00;100089.63;5113726;28;20036;-54
2023/10/24 09:44:08;;;;;;;0.20;0.20;;;;;;;12.17;100.00;100097.63;5113194;28;20024;-56
2023/10/24 09:46:35;;;;;;;0.20;0.20;;;;;;;12.38;100.00;100098.66;5113565;28;20023;-54
2023/10/24 09:49:01;;;;;;;0.20;0.20;;;;;;;12.39;100.00;100104.72;5113387;28;20856;-55
2023/10/24 09:51:27;;;;;;;0.10;0.10;;;;;;;12.41;100.00;100090.97;5112655;28;20034;-55
2023/10/24 09:53:53;;;;;;;0.17;0.17;;;;;;;12.34;100.00;100068.47;5113841;28;20036;-55
2023/10/24 09:56:20;;;;;;;0.20;0.20;;;;;;;12.34;100.00;100071.94;5112963;28;20020;-56
2023/10/24 09:58:46;;;;;;;0.20;0.20;;;;;;;12.35;100.00;100080.56;5112120;28;20429;-56
2023/10/24 10:01:12;;;;;;;0.20;0.20;;;;;;;12.23;100.00;100077.84;5113174;28;20016;-54
2023/10/24 10:03:37;;;;;;;0.20;0.20;;;;;;;12.13;100.00;100077.75;5113118;28;20031;-55
2023/10/24 10:06:05;;;;;;;0.20;0.20;;;;;;;12.12;100.00;100082.88;5112905;28;20030;-55
2023/10/24 10:08:35;;;;;;;0.20;0.20;;;;;;;12.21;100.00;100084.72;5112965;28;20440;-55
2023/10/24 10:11:03;;;;;;;0.20;0.20;;;;;;;12.13;100.00;100082.91;5113276;28;20058;-54
2023/10/24 10:13:30;;;;;;;0.20;0.20;;;;;;;12.08;100.00;100076.81;5112491;28;20077;-56
2023/10/24 10:16:10;;;;;;;0.20;0.20;;;;;;;12.06;100.00;100088.88;5113207;28;20424;-56
2023/10/24 10:18:51;;;;;;;0.20;0.20;;;;;;;12.07;100.00;100102.63;5113078;28;20027;-56
2023/10/24 10:21:26;;;;;;;0.20;0.20;;;;;;;12.13;100.00;100098.41;5112387;28;20427;-56
2023/10/24 10:24:07;;;;;;;0.17;0.17;;;;;;;12.14;100.00;100094.13;5113350;28;20066;-54
2023/10/24 10:26:59;;;;;;;0.20;0.20;;;;;;;12.22;100.00;100101.97;5112538;28;20035;-55
2023/10/24 10:29:51;;;;;;;0.20;0.20;;;;;;;12.12;100.00;100101.84;5113175;28;20031;-54
2023/10/24 10:32:38;;;;;;;0.17;0.17;;;;;;;12.06;100.00;100099.19;5112755;28;20039;-56
2023/10/24 10:35:03;;;;;;;0.20;0.20;;;;;;;11.99;100.00;100089.63;5112587;28;20047;-56
2023/10/24 10:37:35;;;;;;;0.20;0.20;;;;;;;11.94;100.00;100088.69;5112997;28;20562;-55
2023/10/24 10:40:28;;;;;;;0.15;0.15;;;;;;;11.89;100.00;100086.06;5113005;28;20023;-54
2023/10/24 10:42:53;;;;;;;0.10;0.10;;;;;;;11.80;100.00;100076.50;5113048;28;20395;-55
2023/10/24 10:45:29;;;;;;;0.20;0.20;;;;;;;11.74;100.00;100076.41;5112575;28;20027;-55
2023/10/24 10:47:57;;;;;;;0.20;0.20;;;;;;;11.64;100.00;100078.00;5112877;28;20024;-54
2023/10/24 10:50:31;;;;;;;0.13;0.13;;;;;;;11.59;100.00;100077.06;5112913;28;20058;-54
2023/10/24 10:53:32;;;;;;;0.20;0.20;;;;;;;11.59;100.00;100074.47;5112797;28;20032;-55
2023/10/24 10:56:12;;;;;;;0.20;0.20;;;;;;;11.49;100.00;100075.22;5112375;28;20047;-55
2023/10/24 10:58:40;;;;;;;0.20;0.20;;;;;;;11.42;100.00;100071.69;5113088;28;20069;-54
2023/10/24 11:01:20;;;;;;;0.20;0.20;;;;;;;11.38;100.00;100079.38;5112930;28;20019;-54
2023/10/24 11:03:48;;;;;;;0.20;0.20;;;;;;;11.33;100.00;100077.56;5112729;28;20020;-54
2023/10/24 11:06:15;;;;;;;0.20;0.20;;;;;;;11.28;100.00;100078.38;5112470;28;20418;-55
2023/10/24 11:08:43;;;;;;;0.20;0.20;;;;;;;11.23;100.00;100074.84;5112889;28;20020;-55
2023/10/24 11:11:10;;;;;;;0.17;0.17;;;;;;;11.17;100.00;100070.50;5116913;28;20048;-55
2023/10/24 11:13:41;;;;;;;0.20;0.20;;;;;;;11.10;100.00;100073.81;5116396;28;20024;-55
2023/10/24 11:16:11;;;;;;;0.20;0.20;;;;;;;11.03;100.00;100067.69;5116155;28;20023;-56